Time;durP1;ratioP1;P1;durP2;ratioP2;P2;SDS_P1;SDS_P2;PMS_P1;PMS_P2;Temp;Humidity;BMP_temperature;BMP_pressure;BME280_temperature;BME280_humidity;BME280_pressure;Samples;Min_cycle;Max_cycle;Signal;HPM_P1;HPM_P2
2022/06/23 00:04:18;;;;;;;11.12;7.15;;;;;;;14.75;66.10;100283.19;3432412;82;20932;-81
2022/06/23 00:09:38;;;;;;;8.68;6.50;;;;;;;14.67;66.22;100283.70;3428451;82;22020;-81
2022/06/23 00:14:29;;;;;;;9.23;6.17;;;;;;;14.66;66.69;100286.73;3385554;84;20975;-80
2022/06/23 00:19:21;;;;;;;10.78;7.42;;;;;;;14.63;66.84;100295.05;3390089;82;20987;-81
2022/06/23 00:24:20;;;;;;;8.18;6.72;;;;;;;14.59;66.94;100290.72;3431548;82;21264;-81
2022/06/23 00:29:16;;;;;;;9.20;6.22;;;;;;;14.55;67.04;100298.14;3386897;82;21000;-81
2022/06/23 00:34:36;;;;;;;7.65;5.95;;;;;;;14.52;67.27;100300.77;3473517;82;21042;-81
2022/06/23 00:40:00;;;;;;;7.12;5.70;;;;;;;14.48;67.44;100300.77;3363322;82;21024;-81
2022/06/23 00:45:00;;;;;;;6.67;5.53;;;;;;;14.44;67.58;100302.98;3334555;84;20980;-81
2022/06/23 00:50:02;;;;;;;6.72;5.45;;;;;;;14.40;67.74;100311.73;3367805;82;23389;-81
2022/06/23 00:54:57;;;;;;;7.00;5.50;;;;;;;14.39;67.66;100307.81;3373576;82;20968;-81
2022/06/23 00:59:54;;;;;;;8.00;5.65;;;;;;;14.35;67.75;100313.95;3256129;87;20977;-81
2022/06/23 01:05:23;;;;;;;7.60;6.80;;;;;;;14.29;67.91;100314.84;3251717;87;21163;-81
2022/06/23 01:10:34;;;;;;;10.70;6.20;;;;;;;14.23;67.96;100314.41;3259546;87;20988;-81
2022/06/23 01:15:49;;;;;;;8.80;5.25;;;;;;;14.19;68.28;100310.53;3331331;84;21726;-81
2022/06/23 01:21:04;;;;;;;6.28;5.62;;;;;;;14.11;68.19;100311.43;3447095;80;20952;-81
2022/06/23 01:26:04;;;;;;;6.35;5.20;;;;;;;14.09;68.48;100306.66;3431284;83;21014;-81
2022/06/23 01:31:25;;;;;;;7.55;5.15;;;;;;;14.02;68.57;100304.94;3472022;81;20920;-81
2022/06/23 01:36:40;;;;;;;5.95;4.62;;;;;;;13.95;68.64;100310.17;3416972;82;20983;-81
2022/06/23 01:41:45;;;;;;;6.40;5.80;;;;;;;13.89;68.69;100309.75;3428172;82;21074;-81
2022/06/23 01:46:41;;;;;;;5.83;5.10;;;;;;;13.83;68.83;100312.40;3377351;83;20940;-81
2022/06/23 01:51:52;;;;;;;5.75;4.70;;;;;;;13.79;68.98;100314.56;3418919;82;21010;-80
2022/06/23 01:57:07;;;;;;;5.67;5.17;;;;;;;13.70;68.95;100312.43;3342491;83;21035;-81
2022/06/23 02:02:31;;;;;;;6.05;5.50;;;;;;;13.65;69.07;100310.70;3441037;82;21040;-81
2022/06/23 02:07:43;;;;;;;5.90;5.30;;;;;;;13.59;69.38;100319.39;3301476;85;21340;-81
2022/06/23 02:12:42;;;;;;;6.08;4.87;;;;;;;13.56;69.36;100319.42;3245682;86;21019;-81
2022/06/23 02:17:48;;;;;;;5.85;4.75;;;;;;;13.53;69.27;100324.64;3290712;85;20975;-81
2022/06/23 02:22:43;;;;;;;6.62;5.55;;;;;;;13.43;69.29;100329.44;3229919;87;22260;-81
2022/06/23 02:27:48;;;;;;;6.50;4.80;;;;;;;13.38;69.70;100322.03;3268771;86;20998;-81
2022/06/23 02:33:15;;;;;;;5.35;4.85;;;;;;;13.36;69.79;100318.15;3264868;86;21322;-80
2022/06/23 02:38:24;;;;;;;6.15;5.28;;;;;;;13.30;69.91;100322.88;3176095;88;21007;-80
2022/06/23 02:43:25;;;;;;;5.30;4.65;;;;;;;13.25;69.95;100327.27;3346825;84;20969;-80
2022/06/23 02:48:27;;;;;;;5.60;4.92;;;;;;;13.22;70.14;100335.09;3311384;86;20999;-80
2022/06/23 02:53:26;;;;;;;5.80;4.25;;;;;;;13.23;70.18;100339.41;3305300;84;21147;-80
2022/06/23 02:58:40;;;;;;;6.97;4.67;;;;;;;13.22;70.24;100345.53;3380380;82;21944;-80
2022/06/23 03:03:51;;;;;;;4.92;4.40;;;;;;;13.25;70.32;100342.92;3443231;82;20888;-80
2022/06/23 03:09:17;;;;;;;5.75;5.20;;;;;;;13.19;70.21;100350.73;3399221;82;21304;-80
2022/06/23 03:14:38;;;;;;;7.47;5.35;;;;;;;13.26;70.60;100355.09;3389350;83;20920;-80
2022/06/23 03:19:37;;;;;;;5.58;4.70;;;;;;;13.78;70.48;100362.49;3434632;82;20972;-81
2022/06/23 03:24:39;;;;;;;7.15;5.25;;;;;;;14.49;69.65;100363.99;3394001;82;22191;-81
2022/06/23 03:29:50;;;;;;;5.60;5.10;;;;;;;15.29;68.71;100365.70;3396767;83;21030;-81
2022/06/23 03:35:36;;;;;;;5.95;5.33;;;;;;;16.30;67.35;100376.52;3442754;82;20964;-81
2022/06/23 03:46:00;;;;;;;5.10;4.60;;;;;;;17.23;64.53;100377.45;3463764;81;20994;-81
2022/06/23 03:51:02;;;;;;;4.70;4.30;;;;;;;16.99;64.23;100377.83;3415512;82;22057;-81
2022/06/23 03:55:59;;;;;;;7.75;5.58;;;;;;;16.33;64.60;100391.38;3444159;81;21478;-81
2022/06/23 04:00:58;;;;;;;6.15;5.00;;;;;;;15.84;65.51;100390.13;3422786;81;20977;-81
2022/06/23 04:06:10;;;;;;;6.87;5.50;;;;;;;15.49;66.33;100392.63;3404552;81;20925;-81
2022/06/23 04:16:24;;;;;;;9.95;6.10;;;;;;;15.30;67.60;100403.67;3425039;81;22152;-81
2022/06/23 04:21:23;;;;;;;5.40;4.92;;;;;;;15.29;68.10;100409.81;3413157;81;22147;-81
2022/06/23 04:26:23;;;;;;;5.28;4.78;;;;;;;15.32;68.58;100415.00;3425440;81;20937;-81
2022/06/23 04:31:40;;;;;;;6.37;5.78;;;;;;;15.41;69.02;100414.06;3419910;81;21011;-81
2022/06/23 04:36:33;;;;;;;;;;;;;;;15.54;69.29;100410.48;3432101;81;21464;-81
2022/06/23 04:41:44;;;;;;;5.20;4.75;;;;;;;15.78;69.37;100424.28;3403662;81;21820;-81
2022/06/23 04:46:59;;;;;;;6.53;4.92;;;;;;;16.03;69.24;100429.30;3420220;82;21588;-81
2022/06/23 04:52:04;;;;;;;4.83;4.35;;;;;;;16.22;69.07;100436.06;3431685;82;21002;-80
2022/06/23 04:57:20;;;;;;;5.70;4.58;;;;;;;16.41;68.96;100443.75;3412829;82;20940;-79
2022/06/23 05:02:20;;;;;;;5.10;4.60;;;;;;;16.54;68.89;100451.89;3470308;82;21645;-79
2022/06/23 05:07:52;;;;;;;6.53;4.40;;;;;;;16.73;68.36;100464.36;3394959;83;21136;-79
2022/06/23 05:12:51;;;;;;;5.83;4.12;;;;;;;16.88;68.08;100469.88;3416879;82;21017;-79
2022/06/23 05:18:02;;;;;;;8.60;4.35;;;;;;;17.03;68.04;100485.45;3374100;82;20939;-79
2022/06/23 05:22:54;;;;;;;7.25;4.00;;;;;;;17.10;67.97;100487.11;3366775;83;21441;-79
2022/06/23 05:27:48;;;;;;;5.92;4.28;;;;;;;17.22;67.84;100500.50;3312604;84;21872;-79
2022/06/23 05:32:45;;;;;;;5.95;4.15;;;;;;;17.44;67.24;100491.02;3346936;83;21242;-78
2022/06/23 05:38:00;;;;;;;5.92;4.25;;;;;;;17.52;66.94;100500.50;3422570;82;20980;-79
2022/06/23 05:42:58;;;;;;;5.72;3.92;;;;;;;17.69;66.95;100505.52;3273559;86;20999;-79
2022/06/23 05:47:49;;;;;;;7.75;4.45;;;;;;;17.95;66.85;100505.56;3252480;86;21556;-79
2022/06/23 05:52:46;;;;;;;6.10;4.42;;;;;;;18.17;66.24;100506.50;3244355;86;20992;-79
2022/06/23 05:57:57;;;;;;;5.20;4.30;;;;;;;18.70;65.25;100511.67;3203534;87;22530;-79
2022/06/23 06:03:21;;;;;;;6.05;4.45;;;;;;;19.10;64.85;100509.13;3152623;88;21070;-79
2022/06/23 06:08:30;;;;;;;4.72;3.85;;;;;;;19.13;64.48;100505.54;3081706;91;20983;-79
2022/06/23 06:13:33;;;;;;;5.15;3.85;;;;;;;19.19;64.21;100518.14;3144354;89;21045;-79
2022/06/23 06:18:38;;;;;;;4.60;3.40;;;;;;;19.26;64.28;100514.04;3182003;86;21738;-79
2022/06/23 06:24:00;;;;;;;3.72;3.35;;;;;;;19.34;63.81;100525.30;3256670;85;21035;-80
2022/06/23 06:28:59;;;;;;;6.45;3.65;;;;;;;19.37;63.43;100530.47;3298396;85;22464;-79
2022/06/23 06:34:11;;;;;;;4.70;3.47;;;;;;;19.67;63.07;100523.62;3270407;85;22317;-79
2022/06/23 06:39:24;;;;;;;4.65;3.35;;;;;;;19.69;62.92;100527.12;3273288;85;21506;-79
2022/06/23 06:44:18;;;;;;;5.05;2.83;;;;;;;19.87;62.14;100529.80;3384265;82;21023;-79
2022/06/23 06:49:22;;;;;;;6.72;4.25;;;;;;;20.03;61.81;100539.53;3411758;81;21166;-80
2022/06/23 06:54:25;;;;;;;5.58;3.90;;;;;;;20.08;61.89;100538.94;3306700;82;20985;-80
2022/06/23 06:59:28;;;;;;;8.48;3.98;;;;;;;20.72;60.36;100543.46;3389448;81;22229;-80
2022/06/23 07:04:27;;;;;;;3.45;3.15;;;;;;;21.06;60.00;100542.03;3321800;83;21469;-79
2022/06/23 07:09:36;;;;;;;3.25;2.55;;;;;;;21.19;59.76;100545.17;3378013;81;21569;-81
2022/06/23 07:14:50;;;;;;;5.97;2.95;;;;;;;21.24;58.70;100548.55;3342923;83;21509;-80
2022/06/23 07:19:53;;;;;;;6.00;2.95;;;;;;;21.22;58.31;100554.34;3195671;88;21493;-80
2022/06/23 07:25:01;;;;;;;3.22;2.77;;;;;;;21.52;57.50;100557.02;3158553;87;21635;-85
2022/06/23 07:30:04;;;;;;;4.08;2.75;;;;;;;23.05;55.67;100548.76;3128542;88;21143;-84
2022/06/23 07:35:03;;;;;;;4.78;3.70;;;;;;;25.30;51.91;100548.69;3147180;87;21563;-83
2022/06/23 07:40:02;;;;;;;3.72;2.72;;;;;;;29.91;45.97;100547.69;3151266;88;21052;-84
2022/06/23 07:44:59;;;;;;;3.35;2.70;;;;;;;33.11;42.00;100548.09;3166319;88;21028;-82
2022/06/23 07:49:50;;;;;;;3.98;2.47;;;;;;;35.49;38.75;100540.47;3147236;86;21040;-82
2022/06/23 07:54:42;;;;;;;2.52;2.25;;;;;;;37.09;35.41;100543.01;3303182;83;21206;-85
2022/06/23 07:59:58;;;;;;;2.90;2.60;;;;;;;38.42;33.57;100546.02;3400622;82;20963;-85
2022/06/23 08:05:16;;;;;;;4.30;3.15;;;;;;;39.33;32.35;100554.16;3382615;83;21974;-86
2022/06/23 08:10:18;;;;;;;3.58;2.37;;;;;;;39.14;29.97;100547.98;3451002;81;21501;-86
2022/06/23 08:20:51;;;;;;;3.02;2.42;;;;;;;32.50;33.73;100547.95;3391478;82;21173;-85
2022/06/23 08:25:43;;;;;;;4.47;2.20;;;;;;;33.03;33.30;100537.45;3459575;82;20983;-84
2022/06/23 08:30:39;;;;;;;3.62;2.15;;;;;;;31.91;33.44;100541.63;3429932;80;22524;-85
2022/06/23 08:35:45;;;;;;;2.50;2.30;;;;;;;30.49;35.37;100542.03;3377782;81;20960;-84
2022/06/23 08:41:04;;;;;;;2.58;2.20;;;;;;;28.79;36.29;100547.66;3370768;83;20948;-80
2022/06/23 08:46:22;;;;;;;4.42;1.95;;;;;;;27.44;37.95;100548.44;3477358;81;20948;-81
2022/06/23 08:51:28;;;;;;;2.22;2.00;;;;;;;30.62;34.90;100546.93;3407224;81;20998;-84
2022/06/23 08:56:34;;;;;;;2.90;1.80;;;;;;;33.64;31.11;100548.27;3467809;81;21081;-85
2022/06/23 09:01:45;;;;;;;4.22;2.10;;;;;;;36.44;29.02;100553.28;3466252;81;20920;-83
2022/06/23 09:06:50;;;;;;;2.70;1.70;;;;;;;38.05;27.93;100557.95;3503122;81;20985;-80
2022/06/23 09:12:12;;;;;;;1.52;1.42;;;;;;;39.34;25.63;100543.62;3493163;81;37933;-80
2022/06/23 09:17:26;;;;;;;2.15;1.87;;;;;;;37.89;26.67;100558.15;3393368;82;20946;-80
2022/06/23 09:22:36;;;;;;;2.75;1.98;;;;;;;35.79;28.07;100553.52;3390045;83;21072;-81
2022/06/23 09:28:05;;;;;;;5.00;2.75;;;;;;;34.56;28.80;100558.55;3388826;83;21019;-80
2022/06/23 09:33:05;;;;;;;2.70;1.95;;;;;;;35.08;28.14;100561.23;3366015;83;21614;-81
2022/06/23 09:38:19;;;;;;;3.42;1.90;;;;;;;33.41;29.26;100565.86;3282052;84;21269;-77
2022/06/23 09:43:35;;;;;;;2.40;2.20;;;;;;;31.07;31.05;100574.19;3349897;84;21035;-77
2022/06/23 09:49:03;;;;;;;3.55;2.98;;;;;;;29.42;32.28;100568.28;3374986;84;21734;-78
2022/06/23 09:54:49;;;;;;;4.87;2.00;;;;;;;30.97;31.95;100559.70;3456205;80;20963;-78
2022/06/23 09:59:52;;;;;;;3.35;2.27;;;;;;;30.57;31.84;100573.22;3416356;80;20927;-81
2022/06/23 10:04:58;;;;;;;2.37;2.17;;;;;;;28.75;34.06;100575.56;3421089;80;21143;-82
2022/06/23 10:10:10;;;;;;;2.98;2.10;;;;;;;27.73;34.65;100581.98;3439438;80;21486;-82
2022/06/23 10:15:25;;;;;;;4.87;2.15;;;;;;;29.56;34.35;100574.95;3436922;82;21245;-81
2022/06/23 10:20:39;;;;;;;2.80;2.27;;;;;;;30.96;32.77;100566.02;3377769;82;20940;-78
2022/06/23 10:26:02;;;;;;;2.83;2.40;;;;;;;28.98;33.91;100571.95;3300571;85;20999;-78
2022/06/23 10:31:13;;;;;;;2.75;2.52;;;;;;;27.68;35.41;100575.55;3323850;85;21494;-81
2022/06/23 10:36:39;;;;;;;3.27;2.00;;;;;;;27.95;35.87;100576.28;3342362;85;20990;-80
2022/06/23 10:42:05;;;;;;;2.60;2.10;;;;;;;31.08;32.77;100566.98;3334197;84;22467;-83
2022/06/23 10:47:22;;;;;;;4.40;2.45;;;;;;;29.91;33.30;100581.20;3360505;84;20968;-78
2022/06/23 10:52:45;;;;;;;2.45;2.02;;;;;;;32.06;32.41;100568.36;3343051;84;21043;-78
2022/06/23 10:58:08;;;;;;;2.10;1.90;;;;;;;30.75;33.35;100577.29;3345646;82;20944;-82
2022/06/23 11:03:31;;;;;;;1.92;1.82;;;;;;;29.46;33.64;100579.20;3403673;80;22081;-80
2022/06/23 11:08:47;;;;;;;2.27;2.08;;;;;;;28.62;34.50;100578.63;3482988;80;21108;-81
2022/06/23 11:13:53;;;;;;;;;;;;;;;27.88;35.39;100585.12;3454832;80;20955;-81
2022/06/23 11:18:56;;;;;;;2.83;2.37;;;;;;;27.61;36.15;100582.19;3480273;82;20444;-82
2022/06/23 11:24:04;;;;;;;1.95;1.85;;;;;;;28.04;37.37;100577.08;3441091;82;21578;-81
2022/06/23 11:29:22;;;;;;;2.37;1.70;;;;;;;28.53;36.88;100574.66;3404193;82;21027;-82
2022/06/23 11:34:41;;;;;;;5.28;2.75;;;;;;;28.81;34.54;100573.84;3418229;82;22620;-82
2022/06/23 11:40:26;;;;;;;3.27;1.90;;;;;;;28.77;34.98;100565.63;3447926;82;21059;-80
2022/06/23 11:45:32;;;;;;;2.58;2.30;;;;;;;28.05;34.71;100570.80;3454505;80;20936;-80
2022/06/23 11:50:35;;;;;;;3.92;2.10;;;;;;;27.59;36.00;100577.41;3412746;80;21009;-79
2022/06/23 11:55:41;;;;;;;3.52;2.20;;;;;;;27.97;35.87;100567.70;3453830;82;20944;-81
2022/06/23 12:00:55;;;;;;;4.78;2.15;;;;;;;28.57;36.40;100569.53;3481076;82;22009;-83
2022/06/23 12:06:01;;;;;;;2.30;2.10;;;;;;;27.78;37.40;100573.23;3410646;81;20976;-81
2022/06/23 12:10:52;;;;;;;2.67;2.10;;;;;;;28.38;38.08;100572.41;3397788;82;21462;-81
2022/06/23 12:15:48;;;;;;;2.17;1.60;;;;;;;28.28;36.71;100565.91;3392787;83;20987;-80
2022/06/23 12:21:27;;;;;;;6.42;2.10;;;;;;;28.74;36.21;100569.82;3410627;83;20984;-79
2022/06/23 12:26:23;;;;;;;3.30;1.80;;;;;;;27.77;35.53;100577.69;3401027;83;21224;-80
2022/06/23 12:31:45;;;;;;;2.92;1.95;;;;;;;27.11;35.83;100571.14;3470636;80;20938;-82
2022/06/23 12:37:22;;;;;;;2.05;1.92;;;;;;;26.72;36.01;100567.88;3422532;82;20948;-79
2022/06/23 12:42:36;;;;;;;1.75;1.65;;;;;;;27.07;38.56;100561.11;3420734;80;25995;-82
2022/06/23 12:47:45;;;;;;;2.00;1.85;;;;;;;28.27;37.19;100555.67;3276534;85;21173;-80
2022/06/23 12:53:03;;;;;;;2.85;2.00;;;;;;;28.96;35.98;100553.80;3247048;85;21577;-82
2022/06/23 12:58:28;;;;;;;2.42;2.12;;;;;;;29.33;34.84;100551.48;3192022;87;21046;-78
2022/06/23 13:03:25;;;;;;;2.43;1.70;;;;;;;28.71;34.33;100553.98;3153179;87;21084;-81
2022/06/23 13:08:28;;;;;;;2.50;2.30;;;;;;;28.08;34.85;100555.05;3152295;88;21593;-79
2022/06/23 13:13:24;;;;;;;3.92;2.08;;;;;;;27.28;34.88;100557.77;3185744;88;21009;-80
2022/06/23 13:18:38;;;;;;;3.33;1.70;;;;;;;27.23;34.70;100550.94;3182972;87;21046;-80
2022/06/23 13:23:59;;;;;;;3.72;2.85;;;;;;;26.82;35.29;100549.09;3237894;87;23433;-80
2022/06/23 13:29:20;;;;;;;3.27;2.40;;;;;;;26.37;35.75;100544.36;3219163;87;21015;-80
2022/06/23 13:34:29;;;;;;;3.40;2.15;;;;;;;27.39;35.89;100539.34;3302808;84;21195;-78
2022/06/23 13:39:50;;;;;;;2.55;1.80;;;;;;;28.26;35.03;100531.70;3325454;84;21470;-78
2022/06/23 13:45:02;;;;;;;2.92;1.98;;;;;;;28.16;34.89;100530.08;3323377;84;22429;-79
2022/06/23 13:50:08;;;;;;;6.12;2.47;;;;;;;28.19;34.18;100525.89;3373431;84;21501;-79
2022/06/23 13:55:19;;;;;;;4.65;1.70;;;;;;;28.11;34.37;100524.99;3364758;83;21470;-79
2022/06/23 14:00:51;;;;;;;4.33;2.60;;;;;;;27.65;34.37;100529.02;3366579;83;20988;-80
2022/06/23 14:05:59;;;;;;;2.40;1.62;;;;;;;28.02;33.90;100526.88;3368926;83;21296;-77
2022/06/23 14:11:36;;;;;;;3.00;1.90;;;;;;;27.32;34.84;100531.30;3371960;83;21474;-78
2022/06/23 14:16:51;;;;;;;6.23;3.03;;;;;;;26.91;34.61;100518.40;3386278;82;21007;-78
2022/06/23 14:21:50;;;;;;;3.25;2.12;;;;;;;26.36;35.67;100514.64;3404474;82;20996;-78
2022/06/23 14:26:50;;;;;;;2.33;1.80;;;;;;;25.98;35.60;100513.00;3349723;83;21004;-78
2022/06/23 14:32:01;;;;;;;3.40;1.75;;;;;;;26.51;36.53;100503.19;3395806;83;20985;-78
2022/06/23 14:37:16;;;;;;;3.52;2.50;;;;;;;27.46;35.36;100498.97;3249972;86;21036;-77
2022/06/23 14:42:30;;;;;;;3.58;1.85;;;;;;;28.02;34.02;100500.16;3270271;86;21059;-79
2022/06/23 14:47:42;;;;;;;2.25;2.05;;;;;;;28.17;34.18;100498.86;3263043;86;21162;-80
2022/06/23 14:52:47;;;;;;;3.12;1.85;;;;;;;28.57;33.88;100505.34;3151519;88;21551;-82
2022/06/23 14:57:50;;;;;;;2.47;1.90;;;;;;;28.79;33.39;100500.84;3170279;88;21115;-81
2022/06/23 15:02:46;;;;;;;1.90;1.80;;;;;;;28.07;33.57;100499.41;3096761;91;21522;-78
2022/06/23 15:07:52;;;;;;;2.80;1.70;;;;;;;27.32;34.14;100497.92;3117596;89;21011;-81
2022/06/23 15:12:51;;;;;;;3.52;1.82;;;;;;;26.71;35.16;100498.63;3152000;89;21015;-78
2022/06/23 15:17:57;;;;;;;5.80;2.10;;;;;;;26.24;36.38;100505.02;3211370;88;22226;-78
2022/06/23 15:23:11;;;;;;;3.87;2.20;;;;;;;26.03;36.92;100491.48;3205955;89;21021;-77
2022/06/23 15:28:14;;;;;;;2.55;1.77;;;;;;;25.94;38.00;100496.80;3365850;84;21857;-81
2022/06/23 15:33:38;;;;;;;3.05;1.50;;;;;;;25.67;37.47;100508.33;3224429;87;21058;-79
2022/06/23 15:38:58;;;;;;;4.20;1.92;;;;;;;25.53;38.02;100510.81;3105633;90;21614;-84
2022/06/23 15:44:32;;;;;;;5.92;2.33;;;;;;;25.54;37.91;100517.84;3120361;89;21081;-80
2022/06/23 15:49:38;;;;;;;2.30;1.77;;;;;;;25.33;38.41;100515.30;3141012;89;21042;-81
2022/06/23 15:54:40;;;;;;;4.50;2.57;;;;;;;25.12;39.46;100512.66;3165609;88;21104;-84
2022/06/23 15:59:43;;;;;;;7.78;2.27;;;;;;;25.02;39.93;100508.73;3180089;88;20967;-80
2022/06/23 16:04:47;;;;;;;5.35;2.02;;;;;;;24.85;41.02;100513.95;3194218;88;21422;-80
2022/06/23 16:09:49;;;;;;;6.70;2.30;;;;;;;24.69;41.37;100520.43;3270262;82;21438;-79
2022/06/23 16:14:53;;;;;;;7.12;2.42;;;;;;;24.66;41.23;100524.07;3467646;82;22137;-79
2022/06/23 16:19:55;;;;;;;5.60;2.50;;;;;;;24.51;42.06;100518.09;3411194;82;20977;-80
2022/06/23 16:25:02;;;;;;;5.70;3.20;;;;;;;24.29;42.98;100523.02;3413521;80;21513;-80
2022/06/23 16:29:57;;;;;;;15.98;3.27;;;;;;;24.12;44.11;100520.22;3377204;83;20979;-81
2022/06/23 16:35:00;;;;;;;11.28;2.72;;;;;;;23.92;44.40;100529.89;3487358;81;21002;-81
2022/06/23 16:40:08;;;;;;;6.03;2.55;;;;;;;23.77;45.14;100529.17;3450742;82;20955;-78
2022/06/23 16:45:17;;;;;;;3.25;2.65;;;;;;;23.59;46.03;100526.33;3297422;85;21036;-78
2022/06/23 16:50:42;;;;;;;2.60;2.35;;;;;;;23.45;47.71;100524.70;3286896;85;21688;-81
2022/06/23 16:55:57;;;;;;;5.00;2.15;;;;;;;23.52;47.97;100522.20;3296709;84;21093;-80
2022/06/23 17:00:57;;;;;;;4.12;2.40;;;;;;;23.51;48.76;100525.77;3261978;85;21565;-82
2022/06/23 17:05:52;;;;;;;12.23;2.50;;;;;;;23.33;48.33;100523.85;3259882;84;21626;-79
2022/06/23 17:11:00;;;;;;;9.10;3.25;;;;;;;23.31;48.85;100525.70;3240815;85;22171;-79
2022/06/23 17:15:57;;;;;;;8.80;2.60;;;;;;;23.63;48.88;100520.88;3256215;85;21898;-79
2022/06/23 17:20:56;;;;;;;2.95;2.65;;;;;;;23.53;49.01;100525.70;3314428;82;21051;-79
2022/06/23 17:25:53;;;;;;;4.30;2.40;;;;;;;23.59;49.65;100531.64;3379342;82;21053;-79
2022/06/23 17:31:02;;;;;;;5.83;2.83;;;;;;;23.75;49.47;100532.33;3364655;81;22006;-78
2022/06/23 17:36:19;;;;;;;8.58;2.87;;;;;;;23.87;49.35;100537.64;3364849;82;21039;-79
2022/06/23 17:47:04;;;;;;;3.60;2.50;;;;;;;23.85;50.00;100540.36;3399804;82;21015;-79
2022/06/23 17:52:02;;;;;;;3.40;2.50;;;;;;;23.72;50.45;100541.77;3389745;82;22071;-79
2022/06/23 17:57:08;;;;;;;5.53;2.77;;;;;;;23.59;50.15;100546.23;3450969;80;21078;-79
2022/06/23 18:02:32;;;;;;;6.60;2.58;;;;;;;23.48;51.14;100547.11;3423159;81;22133;-78
2022/06/23 18:07:37;;;;;;;4.15;2.40;;;;;;;23.29;51.53;100551.42;3458548;81;20987;-79
2022/06/23 18:12:33;;;;;;;5.67;2.70;;;;;;;23.03;51.35;100549.25;3436499;81;21477;-78
2022/06/23 18:17:42;;;;;;;7.20;3.30;;;;;;;22.80;50.58;100549.66;3392219;82;21007;-78
2022/06/23 18:23:11;;;;;;;5.87;3.02;;;;;;;22.60;51.37;100553.47;3470142;82;20991;-78
2022/06/23 18:28:10;;;;;;;4.42;2.60;;;;;;;22.41;51.99;100559.42;3389563;81;21474;-78
2022/06/23 18:33:22;;;;;;;4.60;2.60;;;;;;;22.13;52.34;100559.93;3469836;81;20959;-78
2022/06/23 18:38:36;;;;;;;6.30;2.95;;;;;;;21.86;52.80;100566.53;3466988;81;20916;-78
2022/06/23 18:43:38;;;;;;;7.40;3.12;;;;;;;21.57;54.08;100567.00;3425771;81;21478;-78
2022/06/23 18:48:51;;;;;;;5.22;2.95;;;;;;;21.33;54.45;100574.71;3432947;81;21605;-78
2022/06/23 18:53:57;;;;;;;4.58;3.15;;;;;;;21.12;54.64;100575.34;3467630;80;21696;-78
2022/06/23 18:59:06;;;;;;;4.15;2.70;;;;;;;20.92;55.01;100581.20;3377320;82;21226;-78
2022/06/23 19:04:18;;;;;;;5.33;2.83;;;;;;;20.75;55.01;100581.69;3451632;82;20941;-78
2022/06/23 19:09:25;;;;;;;5.45;2.52;;;;;;;20.55;54.40;100579.56;3341395;84;21088;-78
2022/06/23 19:14:36;;;;;;;4.58;2.83;;;;;;;20.34;54.92;100582.30;3382885;83;20900;-78
2022/06/23 19:20:09;;;;;;;3.95;3.20;;;;;;;20.16;54.58;100583.16;3373417;83;21090;-78
2022/06/23 19:25:40;;;;;;;4.75;3.20;;;;;;;19.98;55.39;100592.86;3324428;84;21010;-77
2022/06/23 19:30:54;;;;;;;3.20;2.90;;;;;;;19.80;55.89;100593.70;3344739;84;21465;-79
2022/06/23 19:35:54;;;;;;;4.45;3.12;;;;;;;19.65;56.25;100604.56;3362035;83;21070;-80
2022/06/23 19:41:15;;;;;;;6.45;3.25;;;;;;;19.51;56.80;100601.36;3178715;88;21072;-80
2022/06/23 19:46:20;;;;;;;11.85;4.20;;;;;;;19.36;57.24;100602.11;3131222;88;21080;-80
2022/06/23 19:51:22;;;;;;;8.95;3.77;;;;;;;19.20;57.72;100598.06;3179947;88;21659;-80
2022/06/23 19:56:28;;;;;;;4.35;3.17;;;;;;;19.08;58.16;100602.26;3216406;86;21030;-80
2022/06/23 20:01:27;;;;;;;10.35;3.55;;;;;;;18.97;58.53;100607.74;3240879;86;20991;-80
2022/06/23 20:07:02;;;;;;;9.45;3.70;;;;;;;18.84;58.85;100611.92;3190708;86;21103;-80
2022/06/23 20:12:23;;;;;;;4.40;3.98;;;;;;;18.73;59.13;100613.01;3176324;88;21625;-80
2022/06/23 20:17:24;;;;;;;4.42;3.22;;;;;;;18.59;59.29;100615.42;3277369;84;20992;-80
2022/06/23 20:22:27;;;;;;;4.25;3.42;;;;;;;18.49;59.62;100619.11;3374581;82;21007;-80
2022/06/23 20:27:23;;;;;;;4.03;3.42;;;;;;;18.39;59.98;100613.60;3375597;82;20959;-81
2022/06/23 20:32:51;;;;;;;3.40;3.10;;;;;;;18.27;60.21;100623.42;3373838;82;20979;-80
2022/06/23 20:38:11;;;;;;;8.03;3.55;;;;;;;18.15;60.38;100620.98;3311205;85;21923;-80
2022/06/23 20:43:14;;;;;;;4.20;3.58;;;;;;;18.04;60.72;100618.52;3274984;85;21096;-80
2022/06/23 20:48:39;;;;;;;5.28;3.83;;;;;;;17.91;61.00;100624.41;3261422;85;21137;-80
2022/06/23 20:54:04;;;;;;;5.03;3.95;;;;;;;17.81;61.12;100622.77;3311325;84;21102;-80
2022/06/23 20:59:28;;;;;;;7.58;4.45;;;;;;;17.67;61.33;100628.66;3241555;86;20992;-80
2022/06/23 21:04:52;;;;;;;4.55;3.92;;;;;;;17.59;61.58;100626.61;3283989;85;21169;-80
2022/06/23 21:10:15;;;;;;;5.97;4.35;;;;;;;17.53;61.73;100629.73;3304806;83;20988;-80
2022/06/23 21:15:30;;;;;;;7.92;4.58;;;;;;;17.41;61.98;100628.58;3375747;83;21019;-80
2022/06/23 21:20:54;;;;;;;6.10;5.15;;;;;;;17.29;62.13;100633.53;3397392;83;20954;-80
2022/06/23 21:25:56;;;;;;;10.85;5.42;;;;;;;17.21;62.29;100629.28;3398508;83;21043;-80
2022/06/23 21:30:55;;;;;;;9.38;6.75;;;;;;;17.10;62.36;100625.47;3363635;83;21557;-80
2022/06/23 21:35:53;;;;;;;8.80;7.55;;;;;;;16.94;62.44;100630.02;3274114;85;21024;-80
2022/06/23 21:41:05;;;;;;;10.23;8.33;;;;;;;16.86;62.87;100634.46;3302032;85;20980;-80
2022/06/23 21:46:02;;;;;;;8.00;7.20;;;;;;;16.83;63.10;100631.83;3277586;85;20953;-80
2022/06/23 21:51:15;;;;;;;10.20;6.60;;;;;;;16.76;63.19;100633.22;3279363;84;21050;-80
2022/06/23 21:56:17;;;;;;;6.55;5.92;;;;;;;16.69;63.24;100643.80;3255756;85;21233;-79
2022/06/23 22:01:29;;;;;;;6.33;5.53;;;;;;;16.62;63.39;100647.36;3294060;85;21038;-79
2022/06/23 22:06:34;;;;;;;6.80;6.10;;;;;;;16.48;63.49;100645.71;3268929;84;21014;-79
2022/06/23 22:11:42;;;;;;;9.23;7.40;;;;;;;16.42;63.76;100643.58;3326973;82;21523;-79
2022/06/23 22:16:35;;;;;;;10.08;9.18;;;;;;;16.33;63.83;100650.66;3367090;82;21286;-80
2022/06/23 22:21:40;;;;;;;8.00;6.72;;;;;;;16.19;63.80;100652.52;3426149;82;21592;-79
2022/06/23 22:26:45;;;;;;;13.93;11.10;;;;;;;16.12;64.17;100657.37;3418562;82;20983;-80
2022/06/23 22:31:57;;;;;;;13.05;11.73;;;;;;;16.05;64.23;100659.61;3420775;82;20947;-80
2022/06/23 22:36:54;;;;;;;8.73;7.33;;;;;;;15.97;64.50;100657.01;3421404;82;21253;-80
2022/06/23 22:41:57;;;;;;;9.10;7.87;;;;;;;15.93;64.79;100653.53;3409402;82;21012;-80
2022/06/23 22:47:11;;;;;;;8.38;6.65;;;;;;;15.86;65.00;100659.70;3409095;82;21832;-80
2022/06/23 22:52:06;;;;;;;8.50;7.70;;;;;;;15.78;65.00;100657.13;3417401;82;20896;-80
2022/06/23 22:57:05;;;;;;;9.55;6.90;;;;;;;15.69;65.14;100649.73;3397116;82;20954;-80
2022/06/23 23:02:20;;;;;;;8.08;7.00;;;;;;;15.63;65.33;100655.43;3457150;82;21062;-80
2022/06/23 23:07:17;;;;;;;8.18;7.37;;;;;;;15.50;65.33;100653.73;3425637;82;21558;-79
2022/06/23 23:12:20;;;;;;;8.80;7.75;;;;;;;15.45;65.43;100650.25;3412815;82;22696;-80
2022/06/23 23:17:15;;;;;;;6.37;5.75;;;;;;;15.33;65.59;100651.64;3463059;82;20975;-80
2022/06/23 23:22:29;;;;;;;7.85;6.17;;;;;;;15.22;65.78;100649.02;3429088;81;20950;-80
2022/06/23 23:27:21;;;;;;;9.23;5.75;;;;;;;15.17;65.87;100649.06;3331909;84;21536;-79
2022/06/23 23:32:25;;;;;;;6.37;5.78;;;;;;;15.10;66.07;100652.57;3318181;84;21036;-79
2022/06/23 23:37:16;;;;;;;6.50;5.12;;;;;;;15.08;66.14;100654.73;3313360;84;21543;-79
2022/06/23 23:42:08;;;;;;;6.90;5.53;;;;;;;14.95;66.12;100648.67;3315708;83;21334;-79
2022/06/23 23:47:17;;;;;;;6.33;5.40;;;;;;;14.87;66.28;100661.33;3346825;83;21065;-79
2022/06/23 23:52:09;;;;;;;5.55;4.97;;;;;;;14.85;66.48;100664.39;3336996;83;21609;-79
2022/06/23 23:57:03;;;;;;;6.40;5.80;;;;;;;14.79;66.51;100656.98;3360572;83;20956;-79
